AUGUST 29th, 2016

 

METAR SMJP 291400Z 11006KT 9999 BKN022 31/25 Q1014 NOSIG=

METAR SMZO 291400Z 14004KT 9999 SCT020 31/24 Q1014 NOSIG=

METAR SMNI 291400Z 12003KT 9999 SCT020 30/25 Q1015=